Time;durP1;ratioP1;P1;durP2;ratioP2;P2;SDS_P1;SDS_P2;PMS_P1;PMS_P2;Temp;Humidity;BMP_temperature;BMP_pressure;BME280_temperature;BME280_humidity;BME280_pressure;Samples;Min_cycle;Max_cycle;Signal;HPM_P1;HPM_P2
2021/01/10 00:00:45;;;;;;;18.23;11.50;;;4.20;99.90;;;;;;6035687;23;20011;-91
2021/01/10 00:03:15;;;;;;;16.80;11.70;;;3.90;99.90;;;;;;6013682;23;20077;-88
2021/01/10 00:05:42;;;;;;;17.33;12.02;;;3.80;99.90;;;;;;6016108;23;20015;-91
2021/01/10 00:08:09;;;;;;;18.98;12.43;;;4.10;99.90;;;;;;6045704;23;20010;-87
2021/01/10 00:10:37;;;;;;;18.88;11.88;;;4.00;99.90;;;;;;6154468;23;19998;-90
2021/01/10 00:13:05;;;;;;;19.15;13.25;;;4.20;99.90;;;;;;6155548;23;20019;-89
2021/01/10 00:15:31;;;;;;;21.83;12.45;;;4.10;99.90;;;;;;6153952;23;20002;-86
2021/01/10 00:17:57;;;;;;;19.95;13.23;;;4.20;99.90;;;;;;6156386;23;20016;-85
2021/01/10 00:20:23;;;;;;;21.83;14.52;;;4.30;99.90;;;;;;6130522;23;20002;-87
2021/01/10 00:22:52;;;;;;;23.35;15.68;;;4.60;99.90;;;;;;6131328;23;20032;-89
2021/01/10 00:27:50;;;;;;;16.80;11.80;;;4.40;99.90;;;;;;6215884;23;20307;-85
2021/01/10 00:30:19;;;;;;;16.58;11.07;;;4.30;99.90;;;;;;6213139;23;20293;-86
2021/01/10 00:32:53;;;;;;;14.98;10.73;;;4.40;99.90;;;;;;6188635;23;20087;-87
2021/01/10 00:35:20;;;;;;;16.35;9.95;;;4.10;99.90;;;;;;6188953;23;20084;-90
2021/01/10 00:37:55;;;;;;;14.55;9.70;;;4.10;99.90;;;;;;6216628;23;20004;-86
2021/01/10 00:40:22;;;;;;;13.15;9.73;;;4.10;99.90;;;;;;6187864;23;20035;-85
2021/01/10 00:42:49;;;;;;;14.80;9.45;;;4.10;99.90;;;;;;6216102;23;20319;-87
2021/01/10 00:45:18;;;;;;;11.57;8.90;;;4.10;99.90;;;;;;6188173;23;20050;-89
2021/01/10 00:47:45;;;;;;;13.57;9.53;;;4.20;99.90;;;;;;6190125;23;20307;-86
2021/01/10 00:50:11;;;;;;;14.25;9.18;;;4.10;99.90;;;;;;6216123;23;20377;-85
2021/01/10 00:52:37;;;;;;;15.85;9.63;;;3.70;99.90;;;;;;6215480;23;20627;-88
2021/01/10 00:55:05;;;;;;;13.32;9.20;;;3.90;99.90;;;;;;6188723;23;20445;-84
2021/01/10 00:57:30;;;;;;;14.10;9.77;;;3.80;99.90;;;;;;6187663;23;20008;-86
2021/01/10 00:59:56;;;;;;;12.70;8.98;;;3.80;99.90;;;;;;6186507;23;20008;-87
2021/01/10 01:02:22;;;;;;;16.23;9.50;;;3.80;99.90;;;;;;6186946;23;20047;-87
2021/01/10 01:04:48;;;;;;;12.13;9.35;;;3.80;99.90;;;;;;6183197;23;20032;-86
2021/01/10 01:07:14;;;;;;;12.45;9.73;;;3.80;99.90;;;;;;6187889;23;20329;-84
2021/01/10 01:09:40;;;;;;;13.85;8.82;;;3.90;99.90;;;;;;6214709;23;19997;-89
2021/01/10 01:12:06;;;;;;;14.63;9.30;;;3.70;99.90;;;;;;6188400;23;20373;-86
2021/01/10 01:14:42;;;;;;;;;;;;;;;;;;;;;
2021/01/10 01:17:08;;;;;;;13.55;9.73;;;3.90;99.90;;;;;;6216014;23;20084;-89
2021/01/10 01:19:34;;;;;;;14.52;9.88;;;4.00;99.90;;;;;;6186992;23;20033;-86
2021/01/10 01:22:00;;;;;;;14.25;9.40;;;4.10;99.90;;;;;;6213770;23;19988;-87
2021/01/10 01:24:31;;;;;;;13.85;9.50;;;3.90;99.90;;;;;;6214306;23;20001;-89
2021/01/10 01:26:56;;;;;;;13.70;9.10;;;3.80;99.90;;;;;;6214481;23;20020;-90
2021/01/10 01:29:22;;;;;;;15.65;10.23;;;4.00;99.90;;;;;;6187344;23;19997;-83
2021/01/10 01:31:48;;;;;;;12.50;9.25;;;4.00;99.90;;;;;;6186371;23;20004;-88
2021/01/10 01:34:14;;;;;;;21.75;14.15;;;4.00;99.90;;;;;;6213742;23;20071;-85
2021/01/10 01:36:39;;;;;;;43.92;22.92;;;4.00;99.90;;;;;;6187873;23;20001;-87
2021/01/10 01:39:05;;;;;;;14.98;10.57;;;3.80;99.90;;;;;;6186999;23;20437;-87
2021/01/10 01:41:36;;;;;;;15.65;10.38;;;3.70;99.90;;;;;;6187273;23;20015;-84
2021/01/10 01:44:03;;;;;;;14.73;10.05;;;3.50;99.90;;;;;;6186953;23;20012;-84
2021/01/10 01:46:34;;;;;;;17.23;11.20;;;3.70;99.90;;;;;;6213893;23;20074;-84
2021/01/10 01:49:06;;;;;;;15.85;10.57;;;3.50;99.90;;;;;;6186458;23;20469;-85
2021/01/10 01:51:34;;;;;;;14.73;10.65;;;3.50;99.90;;;;;;6212781;23;20530;-84
2021/01/10 01:54:04;;;;;;;16.27;10.65;;;3.40;99.90;;;;;;6212660;23;20000;-85
2021/01/10 01:56:29;;;;;;;17.02;11.38;;;3.60;99.90;;;;;;6212684;23;20078;-86
2021/01/10 01:59:16;;;;;;;16.80;12.13;;;3.70;99.90;;;;;;6213067;23;20341;-85
2021/01/10 02:01:41;;;;;;;17.05;11.40;;;3.60;99.90;;;;;;6186004;23;20028;-84
2021/01/10 02:04:56;;;;;;;16.50;10.77;;;3.70;99.90;;;;;;6185277;23;20012;-84
2021/01/10 02:07:29;;;;;;;16.13;10.95;;;4.00;99.90;;;;;;6205688;23;20005;-87
2021/01/10 02:10:08;;;;;;;17.02;11.02;;;4.10;99.90;;;;;;6186607;23;20004;-85
2021/01/10 02:12:44;;;;;;;14.77;10.07;;;3.90;99.90;;;;;;6186942;23;20021;-85
2021/01/10 02:15:14;;;;;;;17.60;11.98;;;4.00;99.90;;;;;;6213655;23;19989;-84
2021/01/10 02:17:48;;;;;;;16.67;11.40;;;4.00;99.90;;;;;;6214094;23;20020;-83
2021/01/10 02:20:32;;;;;;;14.35;10.88;;;4.00;99.90;;;;;;6186552;23;20473;-82
2021/01/10 02:23:03;;;;;;;16.25;11.07;;;4.00;99.90;;;;;;6187056;23;20051;-85
2021/01/10 02:25:30;;;;;;;15.82;11.02;;;4.00;99.90;;;;;;6213160;23;19997;-83
2021/01/10 02:27:58;;;;;;;17.67;11.88;;;4.20;99.90;;;;;;6189158;23;20005;-85
2021/01/10 02:30:25;;;;;;;16.52;10.98;;;4.30;99.90;;;;;;6216849;23;20023;-82
2021/01/10 02:32:57;;;;;;;16.77;11.23;;;4.10;99.90;;;;;;6216885;23;20004;-84
2021/01/10 02:35:23;;;;;;;19.52;11.30;;;3.60;99.90;;;;;;6216750;23;20136;-83
2021/01/10 02:38:03;;;;;;;17.25;12.20;;;3.70;99.90;;;;;;6190485;23;20343;-83
2021/01/10 02:40:45;;;;;;;17.88;11.40;;;3.70;99.90;;;;;;6189892;23;20003;-83
2021/01/10 02:43:26;;;;;;;18.52;12.27;;;3.80;99.90;;;;;;6190065;23;20008;-83
2021/01/10 02:45:58;;;;;;;17.65;11.35;;;3.80;99.90;;;;;;6189852;23;20422;-82
2021/01/10 02:48:24;;;;;;;22.58;14.00;;;3.70;99.90;;;;;;6217242;23;19992;-83
2021/01/10 02:50:50;;;;;;;21.88;13.95;;;3.60;99.90;;;;;;6190053;23;20011;-85
2021/01/10 02:53:16;;;;;;;23.55;13.20;;;3.60;99.90;;;;;;6216794;23;20075;-85
2021/01/10 02:55:42;;;;;;;22.20;13.77;;;3.90;99.90;;;;;;6189580;23;20499;-88
2021/01/10 02:58:25;;;;;;;21.17;13.93;;;4.10;99.90;;;;;;6190912;23;20000;-86
2021/01/10 03:06:02;;;;;;;22.42;13.88;;;4.30;99.90;;;;;;6185529;23;20079;-83
2021/01/10 03:08:29;;;;;;;19.70;12.55;;;4.10;99.90;;;;;;6186998;23;19990;-86
2021/01/10 03:10:56;;;;;;;17.83;12.50;;;3.70;99.90;;;;;;6185408;23;20004;-84
2021/01/10 03:13:22;;;;;;;19.42;11.73;;;3.60;99.90;;;;;;6185186;23;20331;-87
2021/01/10 03:15:59;;;;;;;18.83;11.70;;;3.60;99.90;;;;;;6136610;23;20078;-85
2021/01/10 03:21:28;;;;;;;18.92;12.05;;;3.60;99.90;;;;;;6178780;23;20032;-84
2021/01/10 03:33:31;;;;;;;15.07;9.98;;;3.70;99.90;;;;;;6217110;23;20117;-85
2021/01/10 03:35:57;;;;;;;13.75;9.73;;;4.00;99.90;;;;;;6190102;23;20330;-84
2021/01/10 03:38:23;;;;;;;16.02;10.27;;;4.10;99.90;;;;;;6216020;23;20071;-86
2021/01/10 03:40:49;;;;;;;15.02;10.85;;;4.10;99.90;;;;;;6188676;23;20370;-88
2021/01/10 03:43:14;;;;;;;15.65;10.70;;;4.20;99.90;;;;;;6188987;23;20059;-85
2021/01/10 03:45:40;;;;;;;15.52;9.75;;;4.30;99.90;;;;;;6188370;23;20000;-86
2021/01/10 03:48:06;;;;;;;14.10;9.57;;;4.30;99.90;;;;;;6188496;23;20005;-85
2021/01/10 03:50:32;;;;;;;14.38;9.82;;;4.20;99.90;;;;;;6213960;23;20335;-84
2021/01/10 03:58:09;;;;;;;16.88;9.95;;;4.00;99.90;;;;;;6174827;23;20439;-85
2021/01/10 04:01:00;;;;;;;13.23;9.10;;;4.20;99.90;;;;;;6185087;23;20008;-85
2021/01/10 04:03:25;;;;;;;13.45;9.07;;;4.20;99.90;;;;;;6183551;23;20005;-86
2021/01/10 04:05:54;;;;;;;12.75;8.98;;;4.40;99.90;;;;;;6184983;23;20001;-87
2021/01/10 04:08:20;;;;;;;12.68;8.50;;;4.40;99.90;;;;;;6183465;23;20001;-87
2021/01/10 04:10:45;;;;;;;13.35;8.85;;;4.40;99.90;;;;;;6183426;23;20056;-86
2021/01/10 04:13:11;;;;;;;12.77;8.98;;;4.30;99.90;;;;;;6183345;23;20017;-86
2021/01/10 04:15:37;;;;;;;12.15;8.77;;;4.40;99.90;;;;;;6184606;23;20077;-84
2021/01/10 04:18:03;;;;;;;13.75;9.82;;;4.50;99.90;;;;;;6183078;23;20008;-84
2021/01/10 04:20:28;;;;;;;13.75;9.05;;;4.50;99.90;;;;;;6184874;23;20001;-85
2021/01/10 04:22:55;;;;;;;13.73;9.27;;;4.40;99.90;;;;;;6183044;23;20005;-86
2021/01/10 04:25:21;;;;;;;13.50;9.02;;;4.20;99.90;;;;;;6185032;23;20060;-85
2021/01/10 04:27:47;;;;;;;13.35;9.55;;;4.40;99.90;;;;;;6182697;23;20087;-86
2021/01/10 04:30:13;;;;;;;11.45;8.90;;;4.40;99.90;;;;;;6184387;23;20040;-86
2021/01/10 04:32:39;;;;;;;11.82;8.73;;;4.40;99.90;;;;;;6183270;23;20433;-86
2021/01/10 04:35:05;;;;;;;12.13;8.55;;;4.30;99.90;;;;;;6184311;23;20530;-85
2021/01/10 04:37:31;;;;;;;15.75;9.40;;;3.90;99.90;;;;;;6182567;23;20096;-83
2021/01/10 04:39:57;;;;;;;14.90;8.80;;;3.80;99.90;;;;;;6184850;23;20029;-83
2021/01/10 04:42:23;;;;;;;13.85;9.60;;;4.00;99.90;;;;;;6182449;23;20029;-86
2021/01/10 04:44:49;;;;;;;14.60;10.00;;;4.20;99.90;;;;;;6184974;23;20036;-84
2021/01/10 04:47:15;;;;;;;13.40;9.93;;;4.30;99.90;;;;;;6181968;23;20028;-84
2021/01/10 04:49:41;;;;;;;12.00;9.10;;;4.30;99.90;;;;;;6184768;23;20005;-82
2021/01/10 04:52:08;;;;;;;13.82;9.63;;;4.40;99.90;;;;;;6184154;23;20009;-85
2021/01/10 04:54:41;;;;;;;14.95;9.68;;;4.40;99.90;;;;;;6183200;23;20430;-85
2021/01/10 04:57:11;;;;;;;14.65;9.90;;;4.40;99.90;;;;;;6182641;23;20088;-86
2021/01/10 04:59:39;;;;;;;;;;;4.40;99.90;;;;;;6183258;23;20430;-85
2021/01/10 05:02:07;;;;;;;15.15;9.30;;;4.40;99.90;;;;;;6182759;23;19908;-86
2021/01/10 05:04:34;;;;;;;14.65;9.13;;;4.50;99.90;;;;;;6183256;23;20011;-83
2021/01/10 05:07:00;;;;;;;13.52;9.65;;;4.50;99.90;;;;;;6184024;23;20075;-83
2021/01/10 05:09:27;;;;;;;12.85;9.45;;;4.50;99.90;;;;;;6182502;23;20424;-87
2021/01/10 05:11:54;;;;;;;13.63;9.57;;;4.50;99.90;;;;;;6182080;23;20316;-85
2021/01/10 05:14:22;;;;;;;17.08;10.13;;;4.50;99.90;;;;;;6182714;23;20009;-84
2021/01/10 05:16:48;;;;;;;13.10;9.23;;;4.60;99.90;;;;;;6184275;23;20059;-86
2021/01/10 05:19:20;;;;;;;12.52;8.95;;;4.60;99.90;;;;;;6182758;23;20004;-85
2021/01/10 05:21:46;;;;;;;13.10;9.23;;;4.60;99.90;;;;;;6183026;23;20032;-84
2021/01/10 05:24:18;;;;;;;15.68;9.40;;;4.60;99.90;;;;;;6184500;23;20381;-85
2021/01/10 05:26:44;;;;;;;14.57;8.98;;;4.60;99.90;;;;;;6183194;23;20031;-83
2021/01/10 05:29:14;;;;;;;12.40;9.43;;;4.60;99.90;;;;;;6184354;23;20004;-85
2021/01/10 05:35:56;;;;;;;12.40;8.82;;;4.60;99.90;;;;;;6184312;23;20513;-85
2021/01/10 05:38:40;;;;;;;14.27;9.57;;;4.70;99.90;;;;;;6126509;23;20041;-86
2021/01/10 05:41:11;;;;;;;12.45;10.02;;;4.60;99.90;;;;;;6127174;23;20009;-86
2021/01/10 05:43:55;;;;;;;15.80;10.75;;;4.60;99.90;;;;;;6127182;23;20033;-86
2021/01/10 05:46:21;;;;;;;16.48;10.90;;;4.50;99.90;;;;;;6127537;23;20006;-88
2021/01/10 05:48:50;;;;;;;17.17;11.70;;;4.50;99.90;;;;;;6126914;23;20031;-85
2021/01/10 05:51:18;;;;;;;17.33;11.40;;;4.40;99.90;;;;;;6126869;23;20148;-84
2021/01/10 05:53:43;;;;;;;14.93;10.95;;;4.40;99.90;;;;;;6151047;23;20037;-86
2021/01/10 05:56:10;;;;;;;17.95;11.73;;;4.50;99.90;;;;;;6126766;23;20038;-86
2021/01/10 05:58:38;;;;;;;17.08;11.43;;;4.50;99.90;;;;;;6151354;23;20526;-86
2021/01/10 06:01:13;;;;;;;17.38;12.32;;;4.50;99.90;;;;;;6126935;23;20009;-85
2021/01/10 06:03:39;;;;;;;18.17;12.25;;;4.50;99.90;;;;;;6150935;23;20066;-86
2021/01/10 06:06:07;;;;;;;17.63;11.98;;;4.50;99.90;;;;;;6151729;23;20033;-87
2021/01/10 06:08:38;;;;;;;19.60;12.73;;;4.40;99.90;;;;;;6158906;23;20005;-86
2021/01/10 06:11:23;;;;;;;17.30;11.95;;;4.50;99.90;;;;;;6181854;23;20024;-84
2021/01/10 06:14:02;;;;;;;18.83;12.68;;;4.60;99.90;;;;;;6182177;23;20016;-86
2021/01/10 06:16:33;;;;;;;18.83;12.15;;;4.60;99.90;;;;;;6183901;23;19993;-85
2021/01/10 06:19:07;;;;;;;18.35;12.07;;;4.60;99.90;;;;;;6182179;23;20373;-87
2021/01/10 06:21:34;;;;;;;19.88;13.23;;;4.60;99.90;;;;;;6183470;23;20068;-87
2021/01/10 06:24:04;;;;;;;19.80;13.60;;;4.60;99.90;;;;;;6182177;23;20048;-82
2021/01/10 06:26:31;;;;;;;19.30;13.53;;;4.50;99.90;;;;;;6182373;23;20064;-84
2021/01/10 06:29:00;;;;;;;20.70;12.68;;;4.50;99.90;;;;;;6183334;23;20008;-87
2021/01/10 06:31:29;;;;;;;22.63;13.40;;;4.60;99.90;;;;;;6182399;23;20005;-86
2021/01/10 06:34:01;;;;;;;21.88;14.38;;;4.60;99.90;;;;;;6183466;23;20402;-85
2021/01/10 06:36:29;;;;;;;19.42;13.18;;;4.60;99.90;;;;;;6182183;23;20005;-85
2021/01/10 06:39:00;;;;;;;19.23;12.93;;;4.70;99.90;;;;;;6183858;23;20020;-87
2021/01/10 06:41:35;;;;;;;21.13;13.32;;;4.60;99.90;;;;;;6183451;23;20378;-85
2021/01/10 06:44:07;;;;;;;20.08;13.68;;;4.50;99.90;;;;;;6183022;23;20021;-85
2021/01/10 06:46:33;;;;;;;20.90;13.60;;;4.60;99.90;;;;;;6156939;23;20083;-85
2021/01/10 06:49:05;;;;;;;20.35;12.85;;;4.50;99.90;;;;;;6156392;23;20029;-86
2021/01/10 06:51:32;;;;;;;21.98;13.98;;;4.50;99.90;;;;;;6157486;23;20090;-83
2021/01/10 06:54:04;;;;;;;25.45;15.52;;;4.60;99.90;;;;;;6183172;23;20009;-83
2021/01/10 06:56:30;;;;;;;24.40;15.55;;;4.60;99.90;;;;;;6156900;23;20091;-86
2021/01/10 07:01:21;;;;;;;24.05;14.98;;;4.60;99.90;;;;;;6154151;23;20487;-84
2021/01/10 07:03:57;;;;;;;23.30;15.55;;;4.60;99.90;;;;;;6151326;23;20339;-85
2021/01/10 07:06:59;;;;;;;24.83;15.07;;;4.50;99.90;;;;;;6152404;23;20009;-85
2021/01/10 07:09:25;;;;;;;25.83;15.35;;;4.50;99.90;;;;;;6151864;23;20006;-83
2021/01/10 07:12:25;;;;;;;23.83;14.85;;;4.40;99.90;;;;;;6152726;23;20009;-85
2021/01/10 07:15:10;;;;;;;23.65;14.63;;;4.30;99.90;;;;;;6154746;23;20012;-85
2021/01/10 07:17:39;;;;;;;25.90;16.00;;;4.40;99.90;;;;;;6155610;23;20006;-85
2021/01/10 07:20:05;;;;;;;23.88;14.88;;;4.50;99.90;;;;;;6153779;23;19998;-83
2021/01/10 07:22:32;;;;;;;23.63;15.30;;;4.40;99.90;;;;;;6155514;23;20375;-83
2021/01/10 07:25:34;;;;;;;21.48;14.15;;;4.40;99.90;;;;;;6155460;23;20002;-85
2021/01/10 07:28:49;;;;;;;23.92;14.48;;;4.40;99.90;;;;;;6150250;23;20002;-85
2021/01/10 07:31:20;;;;;;;20.45;14.32;;;4.50;99.90;;;;;;6135840;23;20017;-85
2021/01/10 07:33:46;;;;;;;24.23;13.93;;;4.40;99.90;;;;;;6154059;23;20402;-84
2021/01/10 07:36:13;;;;;;;22.27;13.18;;;4.50;99.90;;;;;;6155470;23;20324;-82
2021/01/10 07:38:42;;;;;;;22.92;13.38;;;4.50;99.90;;;;;;6155294;23;20002;-83
2021/01/10 07:41:21;;;;;;;20.52;13.63;;;4.50;99.90;;;;;;6153745;23;20005;-84
2021/01/10 07:43:49;;;;;;;22.83;13.90;;;4.50;99.90;;;;;;6153898;23;20014;-84
2021/01/10 07:46:53;;;;;;;16.08;11.90;;;4.70;99.90;;;;;;6154114;23;20036;-85
2021/01/10 07:49:25;;;;;;;16.05;12.07;;;4.50;99.90;;;;;;6154317;23;20328;-84
2021/01/10 07:51:52;;;;;;;15.40;10.85;;;4.20;99.90;;;;;;6155190;23;20112;-83
2021/01/10 07:54:18;;;;;;;15.13;10.02;;;3.80;99.90;;;;;;6154953;23;20001;-84
2021/01/10 07:56:44;;;;;;;17.45;11.27;;;3.90;99.90;;;;;;6153896;23;20005;-85
2021/01/10 07:59:17;;;;;;;17.70;10.88;;;4.00;99.90;;;;;;6153551;23;20068;-83
2021/01/10 08:01:49;;;;;;;16.50;10.93;;;3.90;99.90;;;;;;6154936;23;20009;-84
2021/01/10 08:04:33;;;;;;;19.20;11.35;;;3.90;99.90;;;;;;6153978;23;20006;-86
2021/01/10 08:07:01;;;;;;;16.75;10.65;;;4.20;99.90;;;;;;6155063;23;20051;-84
2021/01/10 08:09:32;;;;;;;15.88;10.85;;;4.30;99.90;;;;;;6153465;23;20014;-84
2021/01/10 08:11:58;;;;;;;17.00;10.38;;;4.50;99.90;;;;;;6153171;23;20009;-87
2021/01/10 08:14:24;;;;;;;15.50;10.40;;;4.40;99.90;;;;;;6153215;23;20021;-87
2021/01/10 08:16:51;;;;;;;18.17;11.00;;;4.00;99.90;;;;;;6153622;23;20090;-83
2021/01/10 08:19:17;;;;;;;16.38;10.77;;;3.70;99.90;;;;;;6155186;23;20002;-85
2021/01/10 08:21:44;;;;;;;19.17;11.73;;;3.80;99.90;;;;;;6153795;23;20064;-87
2021/01/10 08:24:10;;;;;;;18.90;11.63;;;3.90;99.90;;;;;;6154078;23;20395;-85
2021/01/10 08:26:43;;;;;;;18.10;11.32;;;4.20;99.90;;;;;;6154635;23;20052;-84
2021/01/10 08:29:09;;;;;;;16.77;11.73;;;4.30;99.90;;;;;;6152858;23;20313;-87
2021/01/10 08:31:48;;;;;;;;;;;;;;;;;;;;;
2021/01/10 08:34:16;;;;;;;17.10;10.55;;;4.50;99.90;;;;;;6184509;23;20522;-88
2021/01/10 08:36:56;;;;;;;16.00;11.02;;;4.40;99.90;;;;;;6183431;23;20008;-85
2021/01/10 08:49:44;;;;;;;19.48;10.35;;;4.60;99.90;;;;;;6036171;23;20023;-87
2021/01/10 08:52:09;;;;;;;22.98;15.20;;;4.60;99.90;;;;;;6011522;23;20400;-84
2021/01/10 08:54:35;;;;;;;31.08;18.80;;;4.50;99.90;;;;;;6011943;23;20512;-86
2021/01/10 08:57:01;;;;;;;28.42;18.42;;;4.40;99.90;;;;;;6035861;23;20074;-88
2021/01/10 08:59:39;;;;;;;29.33;18.50;;;4.30;99.90;;;;;;6012006;23;20047;-85
2021/01/10 09:02:07;;;;;;;24.92;16.23;;;4.30;99.90;;;;;;6011926;23;20377;-87
2021/01/10 09:04:41;;;;;;;24.30;15.25;;;4.40;99.90;;;;;;6035839;23;20007;-84
2021/01/10 09:07:22;;;;;;;21.80;14.15;;;4.20;99.90;;;;;;6011955;23;20541;-83
2021/01/10 09:09:53;;;;;;;20.70;13.07;;;4.30;99.90;;;;;;6035668;23;20007;-84
2021/01/10 09:12:24;;;;;;;25.08;14.07;;;4.30;99.90;;;;;;6019447;23;20538;-85
2021/01/10 09:15:19;;;;;;;20.77;12.25;;;4.40;99.90;;;;;;6153240;23;20025;-86
2021/01/10 09:18:05;;;;;;;19.05;11.75;;;4.50;99.90;;;;;;6149715;23;20005;-85
2021/01/10 09:20:39;;;;;;;19.70;12.38;;;4.50;99.90;;;;;;6152472;23;20335;-83
2021/01/10 09:23:09;;;;;;;20.10;13.48;;;4.50;99.90;;;;;;6152698;23;20010;-85
2021/01/10 09:25:40;;;;;;;19.02;13.07;;;4.30;99.90;;;;;;6155414;23;20305;-87
2021/01/10 09:28:09;;;;;;;18.25;12.80;;;4.30;99.90;;;;;;6129400;23;20397;-85
2021/01/10 09:30:42;;;;;;;21.17;13.80;;;4.40;99.90;;;;;;6127268;23;20089;-84
2021/01/10 09:33:08;;;;;;;21.38;13.88;;;4.30;99.90;;;;;;6124362;23;20014;-85
2021/01/10 09:35:44;;;;;;;25.33;14.55;;;4.40;99.90;;;;;;6124574;23;20029;-84
2021/01/10 09:38:17;;;;;;;21.15;13.82;;;4.50;99.90;;;;;;6123843;23;20013;-85
2021/01/10 09:41:09;;;;;;;23.23;14.68;;;4.60;99.90;;;;;;6124025;23;20512;-85
2021/01/10 09:43:36;;;;;;;23.80;14.52;;;4.60;99.90;;;;;;6123568;23;20385;-86
2021/01/10 09:46:02;;;;;;;20.65;14.07;;;4.60;99.90;;;;;;6125270;23;20006;-85
2021/01/10 09:48:28;;;;;;;21.52;13.98;;;4.60;99.90;;;;;;6124813;23;20069;-85
2021/01/10 09:50:54;;;;;;;21.67;14.02;;;4.60;99.90;;;;;;6125256;23;20006;-89
2021/01/10 09:53:26;;;;;;;21.63;15.18;;;4.60;99.90;;;;;;6125084;23;20014;-83
2021/01/10 09:55:53;;;;;;;20.98;14.27;;;4.40;99.90;;;;;;6127090;23;20065;-85
2021/01/10 09:58:21;;;;;;;21.48;13.73;;;4.50;99.90;;;;;;6129816;23;20014;-84
2021/01/10 10:00:57;;;;;;;20.77;14.27;;;4.50;99.90;;;;;;6125124;23;20191;-83
2021/01/10 10:03:24;;;;;;;20.95;13.65;;;4.70;99.90;;;;;;6124575;23;20033;-84
2021/01/10 10:05:59;;;;;;;21.83;14.90;;;4.60;99.90;;;;;;6124836;23;20442;-85
2021/01/10 10:08:26;;;;;;;20.40;14.05;;;4.60;99.90;;;;;;6122743;23;20010;-85
2021/01/10 10:10:51;;;;;;;21.77;13.38;;;4.70;99.90;;;;;;6123276;23;20413;-83
2021/01/10 10:13:26;;;;;;;16.90;12.57;;;4.60;99.90;;;;;;6122790;23;20024;-82
2021/01/10 10:15:54;;;;;;;17.70;12.27;;;4.60;99.90;;;;;;6122754;23;20033;-83
2021/01/10 10:18:21;;;;;;;18.17;12.57;;;4.70;99.90;;;;;;6123067;23;20321;-87
2021/01/10 10:20:48;;;;;;;19.70;12.90;;;4.80;99.90;;;;;;6124909;23;20081;-85
2021/01/10 10:23:15;;;;;;;21.15;12.75;;;4.80;99.90;;;;;;6124580;23;20073;-84
2021/01/10 10:25:46;;;;;;;19.95;13.60;;;4.90;99.90;;;;;;6122643;23;20085;-85
2021/01/10 10:28:12;;;;;;;;;;;4.90;99.90;;;;;;6123339;23;20494;-84
2021/01/10 10:30:42;;;;;;;16.25;11.25;;;4.90;99.90;;;;;;6122823;23;19905;-86
2021/01/10 10:33:08;;;;;;;20.95;13.50;;;4.90;99.90;;;;;;6122455;23;20452;-83
2021/01/10 10:35:34;;;;;;;17.08;12.70;;;4.80;99.90;;;;;;6122685;23;20061;-83
2021/01/10 10:38:00;;;;;;;19.75;13.25;;;4.90;99.90;;;;;;6122082;23;20010;-84
2021/01/10 10:40:27;;;;;;;18.60;13.65;;;4.90;99.90;;;;;;6124333;23;20384;-84
2021/01/10 10:42:53;;;;;;;19.75;13.48;;;5.00;99.90;;;;;;6123495;23;20006;-85
2021/01/10 10:45:19;;;;;;;21.20;13.35;;;5.00;99.90;;;;;;6124047;23;20006;-85
2021/01/10 10:47:45;;;;;;;21.10;13.75;;;5.00;99.90;;;;;;6124580;23;20029;-87
2021/01/10 10:50:18;;;;;;;21.63;15.48;;;4.80;99.90;;;;;;6125154;23;20458;-89
2021/01/10 10:52:45;;;;;;;51.35;29.42;;;4.70;99.90;;;;;;6124483;23;20432;-83
2021/01/10 10:55:12;;;;;;;61.25;37.08;;;5.60;99.90;;;;;;6124477;23;20017;-86
2021/01/10 10:57:43;;;;;;;95.50;49.85;;;5.80;99.90;;;;;;6126216;23;20030;-89
2021/01/10 11:00:13;;;;;;;50.00;29.77;;;5.90;99.90;;;;;;6129602;23;20010;-83
2021/01/10 11:02:43;;;;;;;28.60;19.20;;;5.70;99.90;;;;;;6125820;23;20318;-84
2021/01/10 11:05:09;;;;;;;38.40;24.27;;;5.10;99.90;;;;;;6127479;23;20010;-84
2021/01/10 11:07:37;;;;;;;21.58;15.35;;;5.20;99.90;;;;;;6126860;23;20081;-83
2021/01/10 11:10:05;;;;;;;20.50;14.30;;;5.00;99.90;;;;;;6124466;23;20336;-83
2021/01/10 11:12:32;;;;;;;18.70;13.60;;;4.90;99.90;;;;;;6123689;23;20017;-81
2021/01/10 11:14:59;;;;;;;20.08;13.90;;;4.90;99.90;;;;;;6125484;23;20073;-84
2021/01/10 11:17:25;;;;;;;18.00;12.68;;;4.70;99.90;;;;;;6124409;23;20006;-84
2021/01/10 11:19:51;;;;;;;17.95;12.38;;;4.80;99.90;;;;;;6124686;23;20022;-84
2021/01/10 11:22:17;;;;;;;21.15;13.68;;;5.00;99.90;;;;;;6124312;23;20053;-83
2021/01/10 11:24:42;;;;;;;17.40;12.68;;;4.90;99.90;;;;;;6123965;23;20436;-85
2021/01/10 11:27:10;;;;;;;19.35;12.38;;;4.90;99.90;;;;;;6126061;23;20009;-81
2021/01/10 11:29:50;;;;;;;19.33;14.30;;;4.90;99.90;;;;;;6130954;23;20046;-85
2021/01/10 11:32:16;;;;;;;19.95;12.77;;;4.80;99.90;;;;;;6127480;23;20411;-82
2021/01/10 11:34:42;;;;;;;19.33;13.25;;;4.90;99.90;;;;;;6126102;23;20009;-82
2021/01/10 11:37:08;;;;;;;18.42;13.07;;;4.90;99.90;;;;;;6127281;23;20145;-85
2021/01/10 11:39:33;;;;;;;21.23;13.63;;;5.10;99.90;;;;;;6121779;23;20309;-85
2021/01/10 11:41:59;;;;;;;18.38;13.82;;;5.10;99.90;;;;;;6124614;23;20443;-83
2021/01/10 11:44:26;;;;;;;22.30;14.93;;;5.10;99.90;;;;;;6124121;23;20006;-85
2021/01/10 11:46:53;;;;;;;21.27;14.60;;;5.00;99.90;;;;;;6123668;23;20013;-83
2021/01/10 11:49:21;;;;;;;23.85;14.73;;;5.00;99.90;;;;;;6123868;23;20001;-84
2021/01/10 11:51:47;;;;;;;27.90;17.50;;;4.80;99.90;;;;;;6123779;23;20018;-87
2021/01/10 11:54:13;;;;;;;29.25;18.52;;;4.70;99.90;;;;;;6123516;23;20037;-86
2021/01/10 11:56:42;;;;;;;29.73;19.38;;;4.70;99.90;;;;;;6126409;23;20005;-86
2021/01/10 11:59:11;;;;;;;30.25;20.67;;;4.80;99.90;;;;;;6123664;23;20006;-84
2021/01/10 12:01:37;;;;;;;30.02;19.23;;;4.70;99.90;;;;;;6124593;23;20012;-87
2021/01/10 12:04:05;;;;;;;28.20;17.85;;;4.60;99.90;;;;;;6125795;23;20049;-85
2021/01/10 12:06:32;;;;;;;23.67;16.23;;;4.70;99.90;;;;;;6124312;23;20014;-85
2021/01/10 12:08:58;;;;;;;23.38;15.68;;;4.70;99.90;;;;;;6123371;23;20006;-87
2021/01/10 12:11:24;;;;;;;30.98;19.65;;;5.00;99.90;;;;;;6125621;23;20009;-86
2021/01/10 12:13:51;;;;;;;49.42;29.45;;;5.00;99.90;;;;;;6123541;23;20021;-85
2021/01/10 12:16:19;;;;;;;72.82;38.63;;;5.20;99.90;;;;;;6124046;23;20026;-84
2021/01/10 12:18:46;;;;;;;50.00;29.85;;;5.10;99.90;;;;;;6122425;23;20110;-84
2021/01/10 12:21:13;;;;;;;24.27;16.75;;;5.10;99.90;;;;;;6125468;23;20052;-83
2021/01/10 12:23:40;;;;;;;22.35;15.10;;;5.10;99.90;;;;;;6125526;23;20073;-84
2021/01/10 12:26:10;;;;;;;20.23;13.20;;;5.10;99.90;;;;;;6126795;23;20376;-83
2021/01/10 12:28:37;;;;;;;17.65;12.77;;;5.10;99.90;;;;;;6125298;23;20373;-81
2021/01/10 12:31:03;;;;;;;18.50;12.95;;;5.10;99.90;;;;;;6123585;23;20448;-83
2021/01/10 12:33:29;;;;;;;18.35;12.40;;;5.10;99.90;;;;;;6125732;23;20010;-83
2021/01/10 12:35:55;;;;;;;19.80;13.55;;;5.10;99.90;;;;;;6126625;23;20014;-84
2021/01/10 12:38:21;;;;;;;19.17;13.85;;;5.00;99.90;;;;;;6126025;23;20072;-84
2021/01/10 12:40:46;;;;;;;19.85;13.05;;;5.10;99.90;;;;;;6128220;23;20010;-87
2021/01/10 12:43:12;;;;;;;17.17;12.27;;;5.10;99.90;;;;;;6124259;23;20013;-86
2021/01/10 12:45:38;;;;;;;15.05;12.25;;;5.00;99.90;;;;;;6125794;23;20040;-87
2021/01/10 12:48:04;;;;;;;19.75;12.35;;;5.00;99.90;;;;;;6124807;23;20006;-84
2021/01/10 12:50:30;;;;;;;15.55;11.55;;;5.00;99.90;;;;;;6125555;23;20441;-84
2021/01/10 12:52:55;;;;;;;20.27;13.98;;;4.90;99.90;;;;;;6126394;23;20036;-86
2021/01/10 12:55:21;;;;;;;18.55;12.63;;;4.80;99.90;;;;;;6126026;23;20080;-85
2021/01/10 12:57:47;;;;;;;20.58;14.07;;;5.00;99.90;;;;;;6125251;23;20064;-89
2021/01/10 13:00:13;;;;;;;23.60;14.93;;;5.00;99.90;;;;;;6125212;23;20009;-87
2021/01/10 13:02:39;;;;;;;22.40;15.15;;;4.90;99.90;;;;;;6126469;23;20013;-89
2021/01/10 13:05:07;;;;;;;22.83;14.75;;;4.90;99.90;;;;;;6124746;23;20081;-89
2021/01/10 13:07:36;;;;;;;22.80;15.05;;;4.80;99.90;;;;;;6125032;23;20033;-89
2021/01/10 13:10:03;;;;;;;22.02;14.32;;;4.80;99.90;;;;;;6125829;23;20013;-86
2021/01/10 13:12:31;;;;;;;22.70;14.40;;;4.80;99.90;;;;;;6125357;23;20037;-88
2021/01/10 13:14:57;;;;;;;22.55;14.63;;;4.80;99.90;;;;;;6123265;23;20399;-85
2021/01/10 13:17:22;;;;;;;28.70;15.95;;;5.00;99.90;;;;;;6125638;23;20433;-87
2021/01/10 13:19:48;;;;;;;22.98;14.73;;;5.10;99.90;;;;;;6124884;23;20380;-87
2021/01/10 13:22:14;;;;;;;31.50;19.85;;;5.10;99.90;;;;;;6125124;23;20013;-88
2021/01/10 13:24:45;;;;;;;110.78;52.78;;;5.40;99.90;;;;;;6124825;23;19998;-88
2021/01/10 13:27:11;;;;;;;35.92;22.85;;;5.60;99.90;;;;;;6124382;23;20068;-87
2021/01/10 13:29:36;;;;;;;27.02;17.90;;;5.50;99.90;;;;;;6123384;23;20081;-85
2021/01/10 13:32:05;;;;;;;20.77;14.55;;;5.40;99.90;;;;;;6125142;23;20005;-85
2021/01/10 13:34:31;;;;;;;21.77;13.95;;;5.40;99.90;;;;;;6125937;23;20309;-82